createdAt,value
2023-04-29T00:00:33.440Z,100576.32720994085
2023-04-29T00:03:32.237Z,100581.53536190993
2023-04-29T00:06:28.688Z,100576.19808347397
2023-04-29T00:09:25.134Z,100581.20847690303
2023-04-29T00:12:21.684Z,100581.12246634357
2023-04-29T00:15:17.244Z,100582.11950803649
2023-04-29T00:18:13.853Z,100590.42178552788
2023-04-29T00:21:10.329Z,100591.91548433715
2023-04-29T00:24:06.948Z,100593.13681410647
2023-04-29T00:27:03.479Z,100592.34309436033
2023-04-29T00:29:59.018Z,100591.41149849152
2023-04-29T00:35:51.180Z,100584.8919068158
2023-04-29T00:38:46.760Z,100583.69365051381
2023-04-29T00:41:42.306Z,100575.96967495851
2023-04-29T00:44:38.831Z,100573.35070542527
2023-04-29T00:47:34.400Z,100564.07238406506
2023-04-29T00:50:30.970Z,100562.5201994409
2023-04-29T00:53:26.575Z,100560.4328338696
2023-04-29T00:56:24.092Z,100562.86809684665
2023-04-29T00:59:23.634Z,100562.3392768391
2023-04-29T01:02:19.209Z,100570.41483899548
2023-04-29T01:05:14.745Z,100564.81758294569
2023-04-29T01:08:21.301Z,100572.22109940954
2023-04-29T01:11:22.837Z,100571.92069354246
2023-04-29T01:14:24.393Z,100572.504431397
2023-04-29T01:17:24.930Z,100569.04258526926
2023-04-29T01:20:24.500Z,100566.736984234
2023-04-29T01:23:21.051Z,100565.80358745687
2023-04-29T01:26:18.586Z,100564.64848827072
2023-04-29T01:29:24.117Z,100560.83305961825
2023-04-29T01:32:26.726Z,100562.96212816986
2023-04-29T01:35:35.185Z,100564.47333000746
2023-04-29T01:38:39.779Z,100565.93590724982
2023-04-29T01:41:43.261Z,100569.6657052153
2023-04-29T01:44:41.872Z,100577.43422265399
2023-04-29T01:47:39.461Z,100577.32454611255
2023-04-29T01:50:35.979Z,100579.28273480588
2023-04-29T01:53:32.526Z,100576.53275191771
2023-04-29T01:56:28.084Z,100574.88822215788
2023-04-29T01:59:23.638Z,100570.31952288827
2023-04-29T02:02:21.412Z,100563.21893531154
2023-04-29T02:05:17.765Z,100556.43118509505
2023-04-29T02:08:14.302Z,100559.31228715152
2023-04-29T02:11:09.850Z,100562.33739609738
2023-04-29T02:14:05.417Z,100566.33164306203
2023-04-29T02:17:00.984Z,100561.18140306081
2023-04-29T02:19:56.588Z,100562.7372987502
2023-04-29T02:22:52.135Z,100565.89182330792
2023-04-29T02:25:48.672Z,100564.02824558866
2023-04-29T02:28:44.287Z,100562.03185125158
2023-04-29T02:31:39.814Z,100559.50042966241
2023-04-29T02:34:36.435Z,100566.24481399838
2023-04-29T02:37:31.882Z,100568.81865765458
2023-04-29T02:40:27.519Z,100568.19948964434
2023-04-29T02:43:24.089Z,100576.9904944889
2023-04-29T02:46:20.708Z,100568.55675477629
2023-04-29T02:49:16.169Z,100569.26603083404
2023-04-29T02:52:13.758Z,100561.84969291763
2023-04-29T02:55:10.272Z,100562.95656445401
2023-04-29T02:58:06.870Z,100561.94325202673
2023-04-29T03:01:03.423Z,100565.31559623867
2023-04-29T03:04:00.160Z,100555.86246390574
2023-04-29T03:06:56.506Z,100560.61172031217
2023-04-29T03:09:53.216Z,100552.21955399387
2023-04-29T03:12:49.657Z,100550.31330535939
2023-04-29T03:15:45.191Z,100556.52726937072
2023-04-29T03:18:40.763Z,100559.76070116246
2023-04-29T03:21:36.318Z,100559.72070284086
2023-04-29T03:24:32.869Z,100552.61862045604
2023-04-29T03:27:28.427Z,100543.5617672172
2023-04-29T03:30:25.020Z,100545.63886264639
2023-04-29T03:33:20.565Z,100553.31228776622
2023-04-29T03:36:17.106Z,100549.18074367146
2023-04-29T03:39:12.671Z,100550.37614543596
2023-04-29T03:42:08.264Z,100550.5579521004
2023-04-29T03:45:04.778Z,100548.4181943354
2023-04-29T03:48:00.466Z,100546.15286981707
2023-04-29T03:50:55.934Z,100538.00218680444
2023-04-29T03:53:53.458Z,100532.10479095248
2023-04-29T03:56:49.037Z,100534.41437831873
2023-04-29T03:59:45.602Z,100540.01091589875
2023-04-29T04:02:41.252Z,100540.41743019101
2023-04-29T04:05:36.708Z,100537.48686565706
2023-04-29T04:08:32.278Z,100536.37862973745
2023-04-29T04:11:35.823Z,100537.04505908555
2023-04-29T04:14:31.372Z,100546.98560194786
2023-04-29T04:17:26.917Z,100550.35443693289
2023-04-29T04:20:22.506Z,100542.23479763202
2023-04-29T04:23:18.083Z,100542.99119456742
2023-04-29T04:26:18.646Z,100548.66863810063
2023-04-29T04:29:14.159Z,100543.61101779788
2023-04-29T04:32:09.844Z,100550.71249750016
2023-04-29T04:35:06.294Z,100551.29024119147
2023-04-29T04:38:01.868Z,100548.6271906623
2023-04-29T04:40:57.439Z,100558.79201404787
2023-04-29T04:43:52.981Z,100553.99854798154
2023-04-29T04:46:50.554Z,100554.30926906361
2023-04-29T04:49:46.108Z,100555.32838477913
2023-04-29T04:52:42.682Z,100553.24162771305
2023-04-29T04:55:39.258Z,100549.73760906205
2023-04-29T04:58:34.783Z,100543.78965207958
2023-04-29T05:01:30.411Z,100541.83785708237
2023-04-29T05:04:27.098Z,100548.71185061756
2023-04-29T05:07:22.493Z,100547.64356115383
2023-04-29T05:10:17.998Z,100545.46129449064
2023-04-29T05:13:13.616Z,100543.86853810711
2023-04-29T05:16:09.127Z,100544.36206952562
2023-04-29T05:19:06.745Z,100544.49818296311
2023-04-29T05:22:03.211Z,100539.24940652984
2023-04-29T05:25:03.825Z,100536.29558625956
2023-04-29T05:27:59.402Z,100538.10118166337
2023-04-29T05:30:54.959Z,100537.76115124038
2023-04-29T05:33:50.524Z,100542.32823455143
2023-04-29T05:36:46.055Z,100543.46500577655
2023-04-29T05:39:41.589Z,100544.35349649446
2023-04-29T05:42:38.176Z,100549.6223102165
2023-04-29T05:45:36.045Z,100554.54957809356
2023-04-29T05:48:31.290Z,100549.67264692775
2023-04-29T05:51:30.064Z,100547.69860750293
2023-04-29T05:54:33.399Z,100545.75835976675
2023-04-29T05:57:38.922Z,100545.96536054624
2023-04-29T06:00:45.508Z,100549.06885721709
2023-04-29T06:03:41.153Z,100552.8514670566
2023-04-29T06:06:52.525Z,100559.92642248959
2023-04-29T06:10:07.757Z,100563.64114704648
2023-04-29T06:13:08.606Z,100566.71402949217
2023-04-29T06:16:11.063Z,100563.5398020123
2023-04-29T06:19:10.765Z,100571.51174437978
2023-04-29T06:22:20.935Z,100566.79320290245
2023-04-29T06:25:30.484Z,100565.46316705557
2023-04-29T06:28:34.919Z,100565.81838118153
2023-04-29T06:31:39.285Z,100564.86134793899
2023-04-29T06:34:35.384Z,100559.27475816186
2023-04-29T06:37:43.886Z,100555.17893097817
2023-04-29T06:40:45.252Z,100556.11353854169
2023-04-29T06:43:48.927Z,100552.32858783536
2023-04-29T06:46:44.595Z,100548.02344815824
2023-04-29T06:49:44.102Z,100554.34552846852
2023-04-29T06:52:47.675Z,100554.23225080744
2023-04-29T06:55:51.181Z,100551.43710500136
2023-04-29T06:58:52.553Z,100564.04492735822
2023-04-29T07:02:01.986Z,100561.77007805649
2023-04-29T07:05:09.809Z,100567.5991775344
2023-04-29T07:08:14.531Z,100564.60986973143
2023-04-29T07:11:26.851Z,100560.8198209153
2023-04-29T07:14:34.101Z,100560.56721532808
2023-04-29T07:17:33.992Z,100557.21201766137
2023-04-29T07:20:36.532Z,100558.65141124441
2023-04-29T07:23:38.019Z,100558.66155433623
2023-04-29T07:26:45.585Z,100553.0716302941
2023-04-29T07:29:41.116Z,100566.77944832965
2023-04-29T07:32:41.699Z,100564.06293952612
2023-04-29T07:35:47.210Z,100560.81160541037
2023-04-29T07:38:47.775Z,100561.58422507995
2023-04-29T07:41:48.562Z,100560.73396274129
2023-04-29T07:44:54.071Z,100557.60418609001
2023-04-29T07:47:54.516Z,100560.81271759662
2023-04-29T07:50:54.950Z,100558.83791451008
2023-04-29T07:53:54.486Z,100561.01811402821
2023-04-29T07:56:56.856Z,100555.83303458923
2023-04-29T08:00:01.563Z,100556.24770776134
2023-04-29T08:03:03.266Z,100556.34803267635
2023-04-29T08:06:03.695Z,100565.50550876233
2023-04-29T08:09:15.201Z,100565.27734294387
2023-04-29T08:12:16.749Z,100559.22013688956
2023-04-29T08:15:12.317Z,100562.6661313304
2023-04-29T08:18:12.864Z,100561.48333754098
2023-04-29T08:21:17.459Z,100564.62007858275
2023-04-29T08:24:13.950Z,100568.00213382047
2023-04-29T08:30:20.104Z,100561.84485428239
2023-04-29T08:33:16.629Z,100567.08443158556
2023-04-29T08:36:22.834Z,100569.5741706882
2023-04-29T08:39:29.668Z,100571.66531986458
2023-04-29T08:42:34.198Z,100570.16434905295
2023-04-29T08:45:33.827Z,100569.98697696293
2023-04-29T08:48:41.936Z,100572.97486782023
2023-04-29T08:51:55.867Z,100569.70270318545
2023-04-29T08:55:10.149Z,100566.31427420166
2023-04-29T08:58:13.880Z,100571.61800938289
2023-04-29T09:01:20.342Z,100571.94293599758
2023-04-29T09:04:34.717Z,100571.24837729825
2023-04-29T09:07:38.431Z,100564.0833934218
2023-04-29T09:10:44.998Z,100567.62724101823
2023-04-29T09:13:51.527Z,100565.32370194186
2023-04-29T09:16:48.101Z,100561.24668434904
2023-04-29T09:19:56.623Z,100559.99357206748
2023-04-29T09:23:07.144Z,100556.92612158768
2023-04-29T09:26:03.696Z,100552.00295825259
2023-04-29T09:29:13.658Z,100552.80158463154
2023-04-29T09:32:19.832Z,100543.63703938299
2023-04-29T09:35:26.322Z,100545.7246171781
2023-04-29T09:38:26.642Z,100542.51593867081
2023-04-29T09:41:30.316Z,100537.47041667558
2023-04-29T09:44:41.885Z,100538.95345102536
2023-04-29T09:47:52.547Z,100546.99691420692
2023-04-29T09:51:07.345Z,100540.52507662334
2023-04-29T09:54:20.437Z,100525.5503864803
2023-04-29T09:57:36.440Z,100529.58218069903
2023-04-29T10:00:47.322Z,100527.68831054367
2023-04-29T10:03:55.062Z,100529.3434487819
2023-04-29T10:06:57.567Z,100526.98799736584
2023-04-29T10:10:00.285Z,100531.0557398147
2023-04-29T10:13:16.497Z,100523.85446231798
2023-04-29T10:16:33.482Z,100529.99137950556
2023-04-29T10:19:39.865Z,100521.58905568467
2023-04-29T10:22:54.175Z,100528.89858785733
2023-04-29T10:26:03.672Z,100526.47925711823
2023-04-29T10:29:15.734Z,100525.5111723349
2023-04-29T10:32:16.732Z,100525.30098855618
2023-04-29T10:35:20.638Z,100527.79901468845
2023-04-29T10:38:28.850Z,100518.30561686054
2023-04-29T10:41:50.462Z,100514.00952113005
2023-04-29T10:45:06.823Z,100512.31789213564
2023-04-29T10:48:13.435Z,100512.39187007915
2023-04-29T10:51:19.057Z,100507.62579414513
2023-04-29T10:54:31.423Z,100509.51919389692
2023-04-29T10:57:32.020Z,100504.86500221012
2023-04-29T11:00:38.814Z,100505.10789208369
2023-04-29T11:03:55.533Z,100501.68751789363
2023-04-29T11:06:55.557Z,100502.58437046532
2023-04-29T11:09:57.251Z,100501.34871061263
2023-04-29T11:13:06.627Z,100500.48031977612
2023-04-29T11:16:13.122Z,100492.61598371097
2023-04-29T11:19:23.535Z,100490.9021317842
2023-04-29T11:22:30.243Z,100487.6482403816
2023-04-29T11:25:33.758Z,100487.0605165778
2023-04-29T11:28:35.324Z,100487.04427060712
2023-04-29T11:31:45.884Z,100490.61698865492
2023-04-29T11:35:01.379Z,100478.50117587677
2023-04-29T11:37:59.981Z,100483.99557566327
2023-04-29T11:41:01.467Z,100491.32145479384
2023-04-29T11:44:11.717Z,100478.33287384553
2023-04-29T11:47:13.566Z,100483.1462459279
2023-04-29T11:50:10.138Z,100479.19543620093
2023-04-29T11:53:13.449Z,100478.74482460675
2023-04-29T11:56:27.160Z,100476.37326344708
2023-04-29T11:59:31.680Z,100475.28181606105
2023-04-29T12:02:35.345Z,100473.7057853711
2023-04-29T12:05:43.577Z,100482.5581637548
2023-04-29T12:08:56.056Z,100472.18190138211
2023-04-29T12:11:56.845Z,100469.10158722468
2023-04-29T12:14:52.906Z,100472.4919056678
2023-04-29T12:17:51.009Z,100461.81437153276
2023-04-29T12:20:51.506Z,100461.00315429576
2023-04-29T12:24:05.194Z,100459.88457970135
2023-04-29T12:27:06.479Z,100452.01060147087
2023-04-29T12:30:17.057Z,100452.39761055456
2023-04-29T12:33:24.569Z,100440.51874683864
2023-04-29T12:36:37.141Z,100445.92696577984
2023-04-29T12:39:49.688Z,100443.80201311262
2023-04-29T12:42:49.247Z,100440.48992518365
2023-04-29T12:46:02.716Z,100432.84866244595
2023-04-29T12:49:07.259Z,100436.44715960334
2023-04-29T12:52:09.793Z,100423.11226810013
2023-04-29T12:55:13.351Z,100420.12649213496
2023-04-29T12:58:13.887Z,100417.11651963287
2023-04-29T13:01:18.715Z,100424.93547610595
2023-04-29T13:04:29.153Z,100416.31182056188
2023-04-29T13:07:41.221Z,100409.361740127
2023-04-29T13:10:50.893Z,100409.61642773983
2023-04-29T13:13:46.580Z,100409.46873416395
2023-04-29T13:16:47.502Z,100409.19706988175
2023-04-29T13:19:51.903Z,100407.17508466521
2023-04-29T13:22:55.844Z,100401.5513090151
2023-04-29T13:25:57.660Z,100401.14158325587
2023-04-29T13:28:54.283Z,100392.641881086
2023-04-29T13:31:49.888Z,100394.23392417857
2023-04-29T13:34:51.224Z,100392.00826455327
2023-04-29T13:37:47.972Z,100388.65346051543
2023-04-29T13:40:58.474Z,100381.32343654042
2023-04-29T13:43:57.840Z,100379.61535478424
2023-04-29T13:47:01.564Z,100380.583931152
2023-04-29T13:53:35.520Z,100369.8393214144
2023-04-29T14:02:35.208Z,100370.41051180442
2023-04-29T14:05:46.877Z,100371.3320656261
2023-04-29T14:08:47.341Z,100364.23984679459
2023-04-29T14:11:52.180Z,100368.21562725752
2023-04-29T14:14:59.629Z,100361.64074085798
2023-04-29T14:18:06.122Z,100365.98305093459
2023-04-29T14:21:07.519Z,100357.2553102047
2023-04-29T14:24:14.037Z,100359.25494597708
2023-04-29T14:27:25.850Z,100356.05104979748
2023-04-29T14:30:26.489Z,100353.96643199488
2023-04-29T14:33:27.633Z,100352.73586854195
2023-04-29T14:36:37.263Z,100351.68633924083
2023-04-29T14:39:42.670Z,100351.5418657428
2023-04-29T14:42:46.242Z,100347.01988679098
2023-04-29T14:45:44.794Z,100347.60721526458
2023-04-29T14:48:41.359Z,100350.68069637431
2023-04-29T14:51:41.952Z,100354.94023351435
2023-04-29T14:54:43.488Z,100350.29388947929
2023-04-29T14:57:44.021Z,100347.50488521303
2023-04-29T15:00:46.529Z,100349.77899389932
2023-04-29T15:03:47.061Z,100349.96839037506
2023-04-29T15:06:47.622Z,100351.47965354969
2023-04-29T15:09:56.167Z,100350.95691007747
2023-04-29T15:12:56.663Z,100350.5564029009
2023-04-29T15:16:01.345Z,100357.72537515846
2023-04-29T15:19:11.265Z,100349.56954355704
2023-04-29T15:22:12.310Z,100352.45795405176
2023-04-29T15:25:09.894Z,100353.88750779655
2023-04-29T15:28:19.420Z,100350.21477397862
2023-04-29T15:31:14.974Z,100354.07395115506
2023-04-29T15:34:20.364Z,100347.07486506432
2023-04-29T15:37:16.058Z,100359.43734241088
2023-04-29T15:40:27.858Z,100356.34824691968
2023-04-29T15:43:34.185Z,100351.39904863633
2023-04-29T15:46:40.809Z,100350.70434207756
2023-04-29T15:49:42.204Z,100348.21656237399
2023-04-29T15:52:42.763Z,100355.75715087308
2023-04-29T15:55:58.260Z,100349.96790924127
2023-04-29T15:59:03.812Z,100341.93077675003
2023-04-29T16:02:10.380Z,100340.50655758513
2023-04-29T16:05:06.888Z,100342.02238375947
2023-04-29T16:08:21.180Z,100346.47955914807
2023-04-29T16:14:22.485Z,100352.10015083954
2023-04-29T16:17:28.155Z,100349.8932954358
2023-04-29T16:20:39.612Z,100347.8583902943
2023-04-29T16:23:58.206Z,100349.85465899005
2023-04-29T16:27:03.437Z,100344.72222394879
2023-04-29T16:30:13.472Z,100340.87992915598
2023-04-29T16:33:18.316Z,100341.48277766923
2023-04-29T16:36:25.658Z,100342.97322468285
2023-04-29T16:39:27.765Z,100341.73450020816
2023-04-29T16:42:24.318Z,100345.95852177172
2023-04-29T16:45:33.620Z,100343.22261355894
2023-04-29T16:48:36.164Z,100340.05701260848
2023-04-29T16:51:37.897Z,100342.51191771012
2023-04-29T16:54:40.917Z,100340.26591998347
2023-04-29T16:57:45.927Z,100347.60925437053
2023-04-29T17:00:50.446Z,100346.95092322926
2023-04-29T17:03:55.683Z,100350.97752142069
2023-04-29T17:06:51.613Z,100346.87264473687
2023-04-29T17:10:04.492Z,100348.57382092002
2023-04-29T17:13:14.304Z,100348.1981490708
2023-04-29T17:16:19.028Z,100342.83969580862
2023-04-29T17:19:24.772Z,100341.25730878464
2023-04-29T17:22:26.308Z,100349.33039641623
2023-04-29T17:25:26.833Z,100346.68429915127
2023-04-29T17:28:32.432Z,100356.97209454993
2023-04-29T17:31:45.227Z,100358.02461900962
2023-04-29T17:34:52.394Z,100358.51881689981
2023-04-29T17:38:00.711Z,100360.65877618232
2023-04-29T17:41:05.582Z,100365.54034129683
2023-04-29T17:44:12.032Z,100367.83595212524
2023-04-29T17:47:12.612Z,100373.1702547211
2023-04-29T17:50:10.127Z,100373.41273563301
2023-04-29T17:53:10.698Z,100371.75510738048
2023-04-29T17:56:22.860Z,100377.97267122832
2023-04-29T17:59:23.769Z,100371.26638490375
2023-04-29T18:02:30.521Z,100373.07755453266
2023-04-29T18:05:38.830Z,100372.58188506203
2023-04-29T18:08:40.627Z,100372.99910351887
2023-04-29T18:11:41.929Z,100377.95346494064
2023-04-29T18:14:43.450Z,100381.57250921
2023-04-29T18:17:45.065Z,100377.67967735091
2023-04-29T18:20:51.561Z,100381.10064668012
2023-04-29T18:23:57.085Z,100384.37510156223
2023-04-29T18:26:53.646Z,100386.8916647494
2023-04-29T18:29:54.398Z,100392.69987650252
2023-04-29T18:32:55.784Z,100395.76333782407
2023-04-29T18:36:05.066Z,100395.02673508314
2023-04-29T18:39:04.760Z,100393.04431639706
2023-04-29T18:42:05.137Z,100394.9518480036
2023-04-29T18:45:15.566Z,100394.56600416168
2023-04-29T18:48:15.508Z,100392.90688239846
2023-04-29T18:51:12.029Z,100396.04553802463
2023-04-29T18:54:17.532Z,100397.82660507315
2023-04-29T18:57:23.135Z,100400.33322348095
2023-04-29T19:00:23.509Z,100398.06936618417
2023-04-29T19:03:20.167Z,100401.13451472466
2023-04-29T19:06:20.764Z,100394.7425650168
2023-04-29T19:09:28.910Z,100391.38194777053
2023-04-29T19:12:31.754Z,100395.16743861604
2023-04-29T19:15:32.359Z,100391.08200170053
2023-04-29T19:18:32.757Z,100394.6171765117
2023-04-29T19:21:38.447Z,100398.72754474696
2023-04-29T19:24:43.640Z,100395.79602798026
2023-04-29T19:27:44.567Z,100401.47907887009
2023-04-29T19:30:41.020Z,100395.54590960019
2023-04-29T19:33:42.636Z,100398.16196567228
2023-04-29T19:36:39.174Z,100399.3839016028
2023-04-29T19:39:40.719Z,100402.34720651264
2023-04-29T19:42:42.266Z,100403.3802044588
2023-04-29T19:45:38.864Z,100405.83652701041
2023-04-29T19:48:40.067Z,100407.71808620656
2023-04-29T19:51:37.965Z,100411.50856598995
2023-04-29T19:54:38.498Z,100412.10695955118
2023-04-29T19:57:36.069Z,100414.0951090006
2023-04-29T20:00:31.827Z,100412.09110260513
2023-04-29T20:03:28.332Z,100410.38786311726
2023-04-29T20:06:41.722Z,100417.38844900276
2023-04-29T20:09:38.228Z,100418.57628005954
2023-04-29T20:12:43.763Z,100424.05940073244
2023-04-29T20:15:41.340Z,100416.81183228339
2023-04-29T20:18:36.898Z,100416.68387635372
2023-04-29T20:21:46.322Z,100413.59696256042
2023-04-29T20:24:43.007Z,100408.77497178025
2023-04-29T20:27:53.026Z,100413.05855009254
2023-04-29T20:30:53.050Z,100415.30905529176
2023-04-29T20:33:58.412Z,100414.57144591383
2023-04-29T20:37:04.101Z,100410.10712562247
2023-04-29T20:39:59.684Z,100411.28841945539
2023-04-29T20:43:09.008Z,100418.87998020221
2023-04-29T20:46:05.801Z,100421.86646027828
2023-04-29T20:49:07.311Z,100419.8819133847
2023-04-29T20:52:11.596Z,100425.04039821305
2023-04-29T20:55:17.358Z,100430.45809335347
2023-04-29T20:58:22.949Z,100435.73353256508
2023-04-29T21:01:30.420Z,100434.02788675237
2023-04-29T21:04:27.018Z,100428.66301427838
2023-04-29T21:07:37.891Z,100430.7241041793
2023-04-29T21:10:44.070Z,100431.35125286492
2023-04-29T21:13:51.594Z,100436.97879632961
2023-04-29T21:16:55.182Z,100445.01254238932
2023-04-29T21:20:01.022Z,100438.92795087172
2023-04-29T21:23:10.658Z,100440.23680363849
2023-04-29T21:26:05.786Z,100441.52468525083
2023-04-29T21:29:09.302Z,100445.73310274947
2023-04-29T21:32:10.835Z,100443.7781211571
2023-04-29T21:35:13.404Z,100442.05977387635
2023-04-29T21:38:09.120Z,100442.93112086208
2023-04-29T21:41:23.481Z,100441.64120318578
2023-04-29T21:44:20.996Z,100449.61370241137
2023-04-29T21:47:18.632Z,100451.9831650943
2023-04-29T21:50:16.162Z,100450.15414550953
2023-04-29T21:56:37.220Z,100451.30456806892
2023-04-29T21:59:43.719Z,100456.05041043644
2023-04-29T22:02:55.798Z,100458.54980453374
2023-04-29T22:05:56.831Z,100466.6042565172
2023-04-29T22:09:05.776Z,100465.7764948598
2023-04-29T22:12:11.042Z,100462.07076413406
2023-04-29T22:15:20.708Z,100463.43238557257
2023-04-29T22:18:19.737Z,100462.26804813331
2023-04-29T22:21:32.026Z,100458.05815352577
2023-04-29T22:24:36.005Z,100464.48344352019
2023-04-29T22:27:38.019Z,100459.29048377328
2023-04-29T22:30:47.094Z,100460.74171219085
2023-04-29T22:33:49.636Z,100457.63296061792
2023-04-29T22:36:58.495Z,100466.53947687332
2023-04-29T22:40:03.223Z,100459.85549028474
2023-04-29T22:42:59.855Z,100460.62102881396
2023-04-29T22:46:00.837Z,100456.9551651793
2023-04-29T22:49:00.340Z,100455.54896306078
2023-04-29T22:52:02.689Z,100450.55582066099
2023-04-29T22:55:06.357Z,100454.61865139932
2023-04-29T22:58:13.955Z,100450.99893407486
2023-04-29T23:01:16.325Z,100450.22589203693
